Back to top

Cheyenne, WY weather

Cheyenne Regional/Jerry Olson Field, Cheyenne, WY: 1/20/2020 05:53
Visibility10 statute milesclear sky
View 7-Day Forecast
Area Summary
Sky/CloudsSky Clear
Weather [last 24 hours]None
Pressure30.34 in.Hg (1028 hPa)
Dew Point6.1 °F (-14.4 °C)
Relative Humidity51.7 %
Temperature21 °F (-6.1 °C)blue thermometer
Wind Chill10.6 °F (-11.9 °C)
Reading TimeMinimum to Maximum Temperature
6-hr ending 1/20@04:5315.1 °F to 25 °F (-9.4 °C to -3.9 °C)
6-hr ending 1/19@22:5321.9 °F to 34 °F (-5.6 °C to 1.1 °C)
6-hr ending 1/19@16:5334 °F to 41 °F (1.1 °C to 5 °C)
6-hr ending 1/19@10:5318 °F to 37.9 °F (-7.8 °C to 3.3 °C)
24-hr ending 1/19@23:5318 °F to 41 °F (-7.8 °C to 5 °C)
Wind9.21 MPH (8 KT) green arrow pointing 270 degrees
Wind FromWest (280 Degrees)
Rolling 24-hr Peak Wind29.9 MPH (26 KT) on 1/19@12:10
Rolling 24-hr Peak Wind FromWest (280 Degrees)
Twilight Begins06:48Sunshine Yesterday
Sunrise07:18N/A
Sunset17:03
Twilight Ends17:33
METARKCYS 201253Z 28008KT 10SM CLR M06/M14 A3034 RMK AO2 SLP321 T10611144
Tags: